MOL Partner — 3EBZ5 — position and weather

sailwx.info

Track history (hours):
 
Tides and Currents Weather Stations Pressure Air Temp Water Temp Dewpoint Dewpoint Depression Visibility Wind Speed Wind Dir Waves Ship Positions

MOL Partner

Last reported at 2015-Aug-30 15:14 UTC. Time now 2015-Aug-30 20:03 UTC.
Position S 26°54' W 048°39'.

Length 293 m; draft 10.2 m.

Type: Ship (hazmat cat D). MMSI: 371303000.

Date/timePositionNaut miles runAvg speedWind from/ knotsBaromVisibWave heightAir tempDewpointWater temp
2015-Aug-30 15:14S 26°54' W 048°39'5 6.8
2015-Aug-30 14:29S 26°54' W 048°33'2 2.0
2015-Aug-30 13:22S 26°53' W 048°31'0 0.0
2015-Aug-30 12:28S 26°53' W 048°31'  
2015-Aug-27 23:33S 25°20' W 046°57'1212.2
2015-Aug-27 22:33S 25°13' W 046°45'1312.0
2015-Aug-27 21:27S 25°04' W 046°34'1312.2
2015-Aug-27 20:25S 24°57' W 046°23'1012.3
2015-Aug-27 19:34S 24°51' W 046°13'1312.4
2015-Aug-27 18:33S 24°44' W 046°02'1312.6
2015-Aug-27 17:34S 24°37' W 045°50'1312.4
2015-Aug-27 16:32S 24°32' W 045°38'19 0.5
2015-Aug-25 23:07S 24°19' W 045°53'712.2
2015-Aug-25 22:33S 24°21' W 046°01'1110.9
2015-Aug-25 21:33S 24°22' W 046°13'1111.3
2015-Aug-25 20:33S 24°15' W 046°23'1211.6
2015-Aug-25 19:33S 24°04' W 046°22'6 6.3
2015-Aug-25 18:33S 23°59' W 046°17'0 0.4
2015-Aug-25 17:25S 23°58' W 046°18'0 0.0
2015-Aug-25 16:28S 23°58' W 046°18'0 0.0
2015-Aug-25 14:25S 23°58' W 046°18'0 0.0
2015-Aug-25 13:22S 23°58' W 046°18'0 0.0
2015-Aug-25 12:28S 23°58' W 046°18'0 0.0
2015-Aug-25 11:22S 23°58' W 046°18'0 0.0
2015-Aug-25 08:31S 23°58' W 046°18'0 0.0
2015-Aug-25 07:28S 23°58' W 046°18'0 0.0
2015-Aug-25 06:28S 23°58' W 046°18'0 0.0
2015-Aug-25 04:31S 23°58' W 046°18'0 0.0
2015-Aug-25 03:32S 23°58' W 046°18'3 3.1
2015-Aug-25 02:33S 24°00' W 046°20'9 8.6
2015-Aug-25 01:34S 24°09' W 046°22'1010.1
2015-Aug-25 00:33S 24°19' W 046°19'8 8.4
2015-Aug-24 23:33S 24°25' W 046°13'  
Track history (hours):
 
Tides and Currents Weather Stations Pressure Air Temp Water Temp Dewpoint Dewpoint Depression Visibility Wind Speed Wind Dir Waves Ship Positions

MOL Partner

Last reported at 2015-Aug-30 15:14 UTC. Time now 2015-Aug-30 20:03 UTC.
Position S 26°54' W 048°39'.

Length 293 m; draft 10.2 m.

Type: Ship (hazmat cat D). MMSI: 371303000.

Date/timePositionNaut miles runAvg speedWind from/ knotsBaromVisibWave heightAir tempDewpointWater temp
2015-Aug-30 15:14S 26°54' W 048°39'5 6.8
2015-Aug-30 14:29S 26°54' W 048°33'2 2.0
2015-Aug-30 13:22S 26°53' W 048°31'0 0.0
2015-Aug-30 12:28S 26°53' W 048°31'  
2015-Aug-27 23:33S 25°20' W 046°57'1212.2
2015-Aug-27 22:33S 25°13' W 046°45'1312.0
2015-Aug-27 21:27S 25°04' W 046°34'1312.2
2015-Aug-27 20:25S 24°57' W 046°23'1012.3
2015-Aug-27 19:34S 24°51' W 046°13'1312.4
2015-Aug-27 18:33S 24°44' W 046°02'1312.6
2015-Aug-27 17:34S 24°37' W 045°50'1312.4
2015-Aug-27 16:32S 24°32' W 045°38'19 0.5
2015-Aug-25 23:07S 24°19' W 045°53'712.2
2015-Aug-25 22:33S 24°21' W 046°01'1110.9
2015-Aug-25 21:33S 24°22' W 046°13'1111.3
2015-Aug-25 20:33S 24°15' W 046°23'1211.6
2015-Aug-25 19:33S 24°04' W 046°22'6 6.3
2015-Aug-25 18:33S 23°59' W 046°17'0 0.4
2015-Aug-25 17:25S 23°58' W 046°18'0 0.0
2015-Aug-25 16:28S 23°58' W 046°18'0 0.0
2015-Aug-25 14:25S 23°58' W 046°18'0 0.0
2015-Aug-25 13:22S 23°58' W 046°18'0 0.0
2015-Aug-25 12:28S 23°58' W 046°18'0 0.0
2015-Aug-25 11:22S 23°58' W 046°18'0 0.0
2015-Aug-25 08:31S 23°58' W 046°18'0 0.0
2015-Aug-25 07:28S 23°58' W 046°18'0 0.0
2015-Aug-25 06:28S 23°58' W 046°18'0 0.0
2015-Aug-25 04:31S 23°58' W 046°18'0 0.0
2015-Aug-25 03:32S 23°58' W 046°18'3 3.1
2015-Aug-25 02:33S 24°00' W 046°20'9 8.6
2015-Aug-25 01:34S 24°09' W 046°22'1010.1
2015-Aug-25 00:33S 24°19' W 046°19'8 8.4
2015-Aug-24 23:33S 24°25' W 046°13'  

Dump ship's entire track history